createdAt,value
2022-08-17T00:03:52.866Z,59315.84
2022-08-17T00:09:57.814Z,59315.84
2022-08-17T00:16:03.985Z,59315.84
2022-08-17T00:22:34.559Z,59315.84
2022-08-17T00:28:33.262Z,59315.84
2022-08-17T00:34:36.978Z,59315.84
2022-08-17T00:40:44.411Z,59315.84
2022-08-17T00:46:50.069Z,59315.84
2022-08-17T00:52:56.866Z,59315.84
2022-08-17T00:59:02.339Z,59315.84
2022-08-17T01:05:08.799Z,59315.84
2022-08-17T01:11:12.484Z,59315.84
2022-08-17T01:17:16.006Z,59315.84
2022-08-17T01:23:23.915Z,59315.84
2022-08-17T01:29:30.833Z,59315.84
2022-08-17T01:35:34.365Z,59315.84
2022-08-17T01:41:39.271Z,59315.84
2022-08-17T01:47:42.909Z,59315.84
2022-08-17T01:53:50.828Z,59315.84
2022-08-17T01:59:55.812Z,59315.84
2022-08-17T02:06:00.555Z,59315.84
2022-08-17T02:12:05.749Z,59315.84
2022-08-17T02:18:30.238Z,59315.84
2022-08-17T02:24:59.410Z,59315.84
2022-08-17T02:31:06.586Z,59315.84
2022-08-17T02:37:11.528Z,59315.84
2022-08-17T02:43:15.051Z,59315.84
2022-08-17T02:49:18.324Z,59315.84
2022-08-17T02:55:25.972Z,59315.84
2022-08-17T03:01:29.516Z,59315.84
2022-08-17T03:07:32.784Z,59315.84
2022-08-17T03:13:37.999Z,59315.84
2022-08-17T03:19:42.962Z,59315.84
2022-08-17T03:25:46.952Z,59315.84
2022-08-17T03:31:52.492Z,59315.84
2022-08-17T03:38:00.832Z,59315.84
2022-08-17T03:44:05.294Z,59315.84
2022-08-17T03:50:29.681Z,59315.84
2022-08-17T03:56:45.819Z,59315.84
2022-08-17T04:02:49.625Z,59315.84
2022-08-17T04:08:54.626Z,59315.84
2022-08-17T04:14:58.326Z,59315.84
2022-08-17T04:21:02.010Z,59315.84
2022-08-17T04:27:06.934Z,59315.84
2022-08-17T04:33:14.087Z,59315.84
2022-08-17T04:39:17.831Z,101025.09
2022-08-17T04:45:23.024Z,101032.28
2022-08-17T04:51:30.906Z,101030.53
2022-08-17T04:57:39.357Z,101034.63
2022-08-17T05:03:46.833Z,101044.50
2022-08-17T05:09:50.366Z,101034.16
2022-08-17T05:15:57.517Z,101033.59
2022-08-17T05:22:05.860Z,101022.31
2022-08-17T05:28:10.885Z,101025.22
2022-08-17T05:34:14.679Z,101029.28
2022-08-17T05:40:20.882Z,101034.78
2022-08-17T05:46:27.577Z,101035.59
2022-08-17T05:52:43.537Z,101042.03
2022-08-17T05:59:00.022Z,101050.53
2022-08-17T06:05:30.131Z,101059.81
2022-08-17T06:11:41.847Z,101059.94
2022-08-17T06:17:47.471Z,101065.59
2022-08-17T06:23:56.933Z,101071.22
2022-08-17T06:30:09.333Z,101064.34
2022-08-17T06:36:29.349Z,101078.31
2022-08-17T06:43:05.074Z,101074.91
2022-08-17T06:49:17.381Z,101086.25
2022-08-17T06:55:27.539Z,101086.84
2022-08-17T07:01:35.219Z,101076.84
2022-08-17T07:07:59.006Z,101089.56
2022-08-17T07:14:22.444Z,101093.47
2022-08-17T07:20:26.524Z,101098.88
2022-08-17T07:26:30.241Z,101103.81
2022-08-17T07:32:40.277Z,101112.72
2022-08-17T07:38:57.672Z,101116.94
2022-08-17T07:45:24.121Z,101119.25
2022-08-17T07:51:31.990Z,101121.88
2022-08-17T07:57:37.232Z,101124.31
2022-08-17T08:03:43.708Z,101123.28
2022-08-17T08:10:04.030Z,101129.25
2022-08-17T08:16:22.709Z,101127.19
2022-08-17T08:22:33.654Z,101134.34
2022-08-17T08:28:46.734Z,101133.16
2022-08-17T08:35:02.608Z,101139.25
2022-08-17T08:41:26.698Z,101145.53
2022-08-17T08:47:50.301Z,101149.94
2022-08-17T08:54:11.563Z,101135.84
2022-08-17T09:00:19.004Z,101141.09
2022-08-17T09:06:39.769Z,101141.78
2022-08-17T09:12:50.215Z,101136.94
2022-08-17T09:19:04.332Z,101135.88
2022-08-17T09:25:15.566Z,101135.63
2022-08-17T09:31:24.024Z,101137.19
2022-08-17T09:37:33.708Z,101140.69
2022-08-17T09:43:45.989Z,101128.50
2022-08-17T09:49:52.629Z,101132.88
2022-08-17T09:56:24.062Z,101135.47
2022-08-17T10:02:56.232Z,101126.81
2022-08-17T10:09:08.442Z,101132.94
2022-08-17T10:15:25.254Z,101132.94
2022-08-17T10:21:50.674Z,101132.44
2022-08-17T10:28:19.746Z,101144.31
2022-08-17T10:34:49.178Z,101149.72
2022-08-17T10:41:01.139Z,101149.56
2022-08-17T10:47:09.943Z,101140.84
2022-08-17T10:53:56.657Z,101141.56
2022-08-17T11:00:02.156Z,101147.72
2022-08-17T11:06:20.249Z,101141.97
2022-08-17T11:12:39.398Z,101141.78
2022-08-17T11:19:15.189Z,101138.66
2022-08-17T11:25:21.414Z,101150.34
2022-08-17T11:31:38.731Z,101151.06
2022-08-17T11:37:55.261Z,101145.88
2022-08-17T11:44:21.954Z,101141.00
2022-08-17T11:50:56.439Z,101147.81
2022-08-17T11:57:22.512Z,101136.34
2022-08-17T12:03:54.030Z,101143.19
2022-08-17T12:10:01.607Z,101129.44
2022-08-17T12:16:08.320Z,101132.59
2022-08-17T12:22:20.090Z,101131.75
2022-08-17T12:28:27.126Z,101128.28
2022-08-17T12:34:37.930Z,101131.28
2022-08-17T12:40:41.541Z,101141.59
2022-08-17T12:46:54.643Z,101142.66
2022-08-17T12:53:02.536Z,101142.53
2022-08-17T12:59:07.243Z,101143.91
2022-08-17T13:05:21.611Z,101137.50
2022-08-17T13:11:26.385Z,101137.19
2022-08-17T13:17:33.466Z,101132.78
2022-08-17T13:23:37.047Z,101132.81
2022-08-17T13:29:53.566Z,101130.56
2022-08-17T13:36:08.127Z,101134.03
2022-08-17T13:42:52.986Z,101142.41
2022-08-17T13:49:06.270Z,101132.50
2022-08-17T13:55:19.866Z,101120.75
2022-08-17T14:01:31.261Z,101120.91
2022-08-17T14:07:39.940Z,101130.69
2022-08-17T14:13:43.489Z,101133.16
2022-08-17T14:19:47.013Z,101121.97
2022-08-17T14:25:53.247Z,101126.47
2022-08-17T14:31:59.105Z,101105.38
2022-08-17T14:38:03.214Z,101119.75
2022-08-17T14:44:12.553Z,101127.31
2022-08-17T14:50:21.243Z,101127.97
2022-08-17T14:56:25.970Z,101127.78
2022-08-17T15:02:31.393Z,101109.41
2022-08-17T15:08:34.973Z,101112.88
2022-08-17T15:14:38.479Z,101115.84
2022-08-17T15:20:44.538Z,101107.88
2022-08-17T15:26:48.629Z,101138.84
2022-08-17T15:32:55.181Z,101131.16
2022-08-17T15:39:00.738Z,101121.41
2022-08-17T15:45:07.848Z,101128.59
2022-08-17T15:51:15.791Z,101127.38
2022-08-17T15:57:21.055Z,101130.88
2022-08-17T16:03:52.368Z,101130.19
2022-08-17T16:09:50.485Z,101128.28
2022-08-17T16:15:57.518Z,101116.75
2022-08-17T16:22:01.342Z,101119.00
2022-08-17T16:28:05.724Z,101116.75
2022-08-17T16:34:17.114Z,101110.63
2022-08-17T16:40:23.292Z,101120.22
2022-08-17T16:46:26.908Z,101125.47
2022-08-17T16:52:33.572Z,101114.13
2022-08-17T16:58:39.495Z,101115.34
2022-08-17T17:04:50.703Z,101104.69
2022-08-17T17:10:56.867Z,101110.97
2022-08-17T17:17:04.748Z,101119.19
2022-08-17T17:23:15.431Z,101110.81
2022-08-17T17:29:48.747Z,101110.25
2022-08-17T17:35:58.693Z,101117.06
2022-08-17T17:42:07.803Z,101121.09
2022-08-17T17:48:12.985Z,101112.88
2022-08-17T17:54:32.544Z,101114.75
2022-08-17T18:00:40.283Z,101118.75
2022-08-17T18:06:55.714Z,101128.53
2022-08-17T18:13:10.095Z,101134.81
2022-08-17T18:19:15.154Z,101141.19
2022-08-17T18:25:43.634Z,101128.41
2022-08-17T18:31:47.196Z,101127.59
2022-08-17T18:37:53.401Z,101142.59
2022-08-17T18:44:05.049Z,101132.28
2022-08-17T18:50:26.387Z,59315.84
2022-08-17T18:56:32.105Z,101130.72
2022-08-17T19:02:52.125Z,101135.03
2022-08-17T19:08:55.791Z,101139.00
2022-08-17T19:15:01.109Z,101136.88
2022-08-17T19:21:11.174Z,101146.38
2022-08-17T19:27:21.022Z,101146.78
2022-08-17T19:33:27.515Z,101134.19
2022-08-17T19:39:45.020Z,101128.09
2022-08-17T19:46:02.560Z,101130.00
2022-08-17T19:52:18.432Z,101127.66
2022-08-17T19:58:36.955Z,101132.53
2022-08-17T20:04:44.502Z,101131.84
2022-08-17T20:10:54.498Z,101139.09
2022-08-17T20:17:02.808Z,101134.50
2022-08-17T20:23:12.993Z,101142.06
2022-08-17T20:29:29.569Z,101150.41
2022-08-17T20:36:08.183Z,101145.72
2022-08-17T20:42:33.430Z,101155.28
2022-08-17T20:48:42.720Z,101144.28
2022-08-17T20:54:50.981Z,101136.31
2022-08-17T21:01:13.797Z,101139.66
2022-08-17T21:07:30.168Z,101143.25
2022-08-17T21:14:01.730Z,101135.59
2022-08-17T21:20:15.729Z,101141.50
2022-08-17T21:26:30.357Z,101132.81
2022-08-17T21:32:37.990Z,101140.13
2022-08-17T21:38:57.784Z,101133.06
2022-08-17T21:45:12.401Z,101143.09
2022-08-17T21:51:20.857Z,101153.84
2022-08-17T21:57:27.575Z,101153.69
2022-08-17T22:03:32.761Z,101163.09
2022-08-17T22:09:44.126Z,101160.31
2022-08-17T22:15:50.273Z,101155.34
2022-08-17T22:22:04.030Z,101155.19
2022-08-17T22:28:11.002Z,101145.03
2022-08-17T22:34:16.861Z,101141.66
2022-08-17T22:40:28.203Z,101138.75
2022-08-17T22:46:50.654Z,101145.44
2022-08-17T22:53:17.367Z,101147.66
2022-08-17T22:59:38.112Z,101150.91
2022-08-17T23:05:45.648Z,101139.06
2022-08-17T23:11:53.614Z,101140.28
2022-08-17T23:17:57.227Z,101141.47
2022-08-17T23:24:02.210Z,101140.88
2022-08-17T23:30:11.881Z,101131.34
2022-08-17T23:36:16.745Z,101135.16
2022-08-17T23:42:22.242Z,101138.13
2022-08-17T23:48:34.913Z,101142.56
2022-08-17T23:54:43.884Z,101139.59
